PLF014 EPKK-EPRZ
Flight info
| Callsign | PLF014 |
|---|---|
| Flight time | N/A |
| Altitude | 11000 |
| Route | LUXA5J LUXAR DCT VFR EPRZW EPRZY STAY01/0030 EPRZN EPRZK IFR DCT GOVRI GOVR4G |
| Aircraft | C295/M-SDFGIRY/S |
Departure
| Time | N/A |
|---|---|
| Airport | Kraków John Paul II International Airport (EPKK) |
Arrival
| Time | 2026-05-01 13:33 |
|---|---|
| Airport | Rzeszów-Jasionka Airport (EPRZ) |
| Time | Latitude | Longitude | Altitude | Speed | Heading |
|---|---|---|---|---|---|
| 2026-05-01 13:25 | 50.10977 | 22.03084 | 690 ft | 112 kts | 272° |
| 2026-05-01 13:26 | 50.11002 | 22.01893 | 685 ft | 110 kts | 271° |
| 2026-05-01 13:26 | 50.11029 | 22.00596 | 727 ft | 127 kts | 272° |
| 2026-05-01 13:26 | 50.11042 | 21.99270 | 960 ft | 126 kts | 272° |
| 2026-05-01 13:26 | 50.11056 | 21.97828 | 1126 ft | 138 kts | 272° |
| 2026-05-01 13:27 | 50.11042 | 21.96279 | 1567 ft | 147 kts | 266° |
| 2026-05-01 13:27 | 50.10530 | 21.94884 | 2034 ft | 162 kts | 215° |
| 2026-05-01 13:27 | 50.08061 | 21.94548 | 2533 ft | 206 kts | 162° |
| 2026-05-01 13:28 | 50.06947 | 21.98655 | 2336 ft | 231 kts | 85° |
| 2026-05-01 13:28 | 50.07042 | 22.01182 | 2239 ft | 237 kts | 83° |
| 2026-05-01 13:29 | 50.07526 | 22.06273 | 2164 ft | 239 kts | 77° |
| 2026-05-01 13:29 | 50.07960 | 22.11365 | 2062 ft | 237 kts | 83° |
| 2026-05-01 13:30 | 50.10859 | 22.11659 | 1320 ft | 233 kts | 276° |
| 2026-05-01 13:31 | 50.10914 | 22.07363 | 888 ft | 164 kts | 273° |
| 2026-05-01 13:31 | 50.10981 | 22.03044 | 684 ft | 108 kts | 274° |
| 2026-05-01 13:32 | 50.11000 | 22.01763 | 686 ft | 56 kts | 274° |
| 2026-05-01 13:33 | 50.11030 | 22.01249 | 690 ft | 13 kts | 281° |
| 2026-05-01 13:33 | 50.11032 | 22.01236 | 688 ft | 0 kts | 276° |
| 2026-05-01 13:34 | 50.11016 | 22.01229 | 686 ft | 6 kts | 166° |
| 2026-05-01 13:35 | 50.11001 | 22.01785 | 686 ft | 44 kts | 91° |
| 2026-05-01 13:35 | 50.10995 | 22.02219 | 682 ft | 27 kts | 89° |
| 2026-05-01 13:35 | 50.11157 | 22.02302 | 682 ft | 15 kts | 2° |
| 2026-05-01 13:36 | 50.11260 | 22.02310 | 682 ft | 15 kts | 3° |
| 2026-05-01 13:36 | 50.11340 | 22.02371 | 682 ft | 5 kts | 17° |
| 2026-05-01 13:36 | 50.11355 | 22.02373 | 684 ft | 0 kts | 4° |